RYR2JH LEVC-GCTS
Flight info
| Callsign | RYR2JH |
|---|---|
| Flight time | N/A |
| Altitude | 35000 |
| Route | ASTRO M985 PIMOS N869 GALTO UN869 RUSIK |
| Aircraft | B738/M-SDE3FGILRWY/SB1 |
Departure
| Time | N/A |
|---|---|
| Airport | Valencia Airport (LEVC) |
Arrival
| Time | 2026-04-27 20:34 |
|---|---|
| Airport | Tenerife Sur Airport (GCTS) |
| Time | Latitude | Longitude | Altitude | Speed | Heading |
|---|---|---|---|---|---|
| 2026-04-27 20:07 | 27.97184 | -14.77650 | 34800 ft | 377 kts | 260° |
| 2026-04-27 20:07 | 27.96568 | -14.80550 | 34575 ft | 385 kts | 260° |
| 2026-04-27 20:08 | 27.96147 | -14.82529 | 34297 ft | 397 kts | 260° |
| 2026-04-27 20:08 | 27.95489 | -14.85604 | 33907 ft | 405 kts | 260° |
| 2026-04-27 20:08 | 27.94820 | -14.88691 | 33479 ft | 403 kts | 260° |
| 2026-04-27 20:08 | 27.94153 | -14.91756 | 33060 ft | 400 kts | 260° |
| 2026-04-27 20:09 | 27.93488 | -14.94799 | 32645 ft | 397 kts | 260° |
| 2026-04-27 20:09 | 27.92830 | -14.97812 | 32232 ft | 395 kts | 260° |
| 2026-04-27 20:09 | 27.92173 | -15.00822 | 31822 ft | 393 kts | 260° |
| 2026-04-27 20:09 | 27.91519 | -15.03815 | 31412 ft | 391 kts | 260° |
| 2026-04-27 20:10 | 27.90868 | -15.06794 | 31008 ft | 390 kts | 260° |
| 2026-04-27 20:10 | 27.90220 | -15.09763 | 30596 ft | 388 kts | 260° |
| 2026-04-27 20:10 | 27.89573 | -15.12719 | 30203 ft | 387 kts | 260° |
| 2026-04-27 20:10 | 27.88926 | -15.15670 | 29798 ft | 387 kts | 260° |
| 2026-04-27 20:11 | 27.88278 | -15.18621 | 29385 ft | 386 kts | 260° |
| 2026-04-27 20:11 | 27.87632 | -15.21562 | 28968 ft | 386 kts | 260° |
| 2026-04-27 20:11 | 27.86985 | -15.24504 | 28534 ft | 385 kts | 260° |
| 2026-04-27 20:11 | 27.86339 | -15.27440 | 28109 ft | 385 kts | 260° |
| 2026-04-27 20:12 | 27.85694 | -15.30367 | 27685 ft | 384 kts | 260° |
| 2026-04-27 20:12 | 27.85048 | -15.33293 | 27258 ft | 383 kts | 260° |
| 2026-04-27 20:12 | 27.84406 | -15.36205 | 26837 ft | 382 kts | 259° |
| 2026-04-27 20:12 | 27.83763 | -15.39111 | 26406 ft | 381 kts | 259° |
| 2026-04-27 20:13 | 27.83193 | -15.42017 | 25990 ft | 377 kts | 265° |
| 2026-04-27 20:13 | 27.83000 | -15.44947 | 25571 ft | 372 kts | 273° |
| 2026-04-27 20:13 | 27.83191 | -15.47847 | 25112 ft | 368 kts | 277° |
| 2026-04-27 20:13 | 27.83456 | -15.50717 | 24598 ft | 368 kts | 277° |
| 2026-04-27 20:14 | 27.83724 | -15.53590 | 24063 ft | 368 kts | 277° |
| 2026-04-27 20:14 | 27.83990 | -15.56474 | 23529 ft | 368 kts | 277° |
| 2026-04-27 20:14 | 27.84249 | -15.59347 | 23057 ft | 367 kts | 277° |
| 2026-04-27 20:14 | 27.84502 | -15.62210 | 22631 ft | 364 kts | 277° |
| 2026-04-27 20:15 | 27.84749 | -15.65047 | 22202 ft | 362 kts | 277° |
| 2026-04-27 20:15 | 27.84995 | -15.67869 | 21728 ft | 361 kts | 277° |
| 2026-04-27 20:15 | 27.85239 | -15.70683 | 21311 ft | 358 kts | 277° |
| 2026-04-27 20:15 | 27.85478 | -15.73469 | 20910 ft | 355 kts | 276° |
| 2026-04-27 20:16 | 27.85717 | -15.76239 | 20538 ft | 353 kts | 277° |
| 2026-04-27 20:16 | 27.85953 | -15.78997 | 20162 ft | 351 kts | 276° |
| 2026-04-27 20:16 | 27.86182 | -15.81700 | 19794 ft | 350 kts | 276° |
| 2026-04-27 20:16 | 27.86414 | -15.84431 | 19422 ft | 347 kts | 276° |
| 2026-04-27 20:17 | 27.86644 | -15.87137 | 19053 ft | 345 kts | 276° |
| 2026-04-27 20:17 | 27.86873 | -15.89836 | 18681 ft | 344 kts | 276° |
| 2026-04-27 20:17 | 27.87100 | -15.92515 | 18318 ft | 342 kts | 276° |
| 2026-04-27 20:17 | 27.87326 | -15.95184 | 17960 ft | 340 kts | 276° |
| 2026-04-27 20:18 | 27.87549 | -15.97841 | 17599 ft | 339 kts | 276° |
| 2026-04-27 20:18 | 27.87772 | -16.00489 | 17236 ft | 338 kts | 276° |
| 2026-04-27 20:18 | 27.87992 | -16.03127 | 16886 ft | 337 kts | 276° |
| 2026-04-27 20:18 | 27.88211 | -16.05756 | 16521 ft | 335 kts | 276° |
| 2026-04-27 20:19 | 27.88429 | -16.08376 | 16161 ft | 334 kts | 276° |
| 2026-04-27 20:19 | 27.88646 | -16.10985 | 15804 ft | 333 kts | 276° |
| 2026-04-27 20:19 | 27.88862 | -16.13586 | 15446 ft | 332 kts | 276° |
| 2026-04-27 20:19 | 27.89077 | -16.16178 | 15090 ft | 331 kts | 277° |
| 2026-04-27 20:20 | 27.89291 | -16.18765 | 14734 ft | 330 kts | 277° |
| 2026-04-27 20:20 | 27.89503 | -16.21342 | 14379 ft | 329 kts | 277° |
| 2026-04-27 20:20 | 27.89714 | -16.23910 | 14022 ft | 328 kts | 277° |
| 2026-04-27 20:20 | 27.89816 | -16.26484 | 13649 ft | 329 kts | 265° |
| 2026-04-27 20:21 | 27.89194 | -16.28982 | 13178 ft | 334 kts | 249° |
| 2026-04-27 20:21 | 27.88262 | -16.31391 | 12699 ft | 335 kts | 249° |
| 2026-04-27 20:21 | 27.87335 | -16.33791 | 12325 ft | 332 kts | 249° |
| 2026-04-27 20:21 | 27.86430 | -16.36169 | 11961 ft | 328 kts | 249° |
| 2026-04-27 20:22 | 27.85540 | -16.38530 | 11611 ft | 324 kts | 249° |
| 2026-04-27 20:22 | 27.84665 | -16.40862 | 11278 ft | 321 kts | 249° |
| 2026-04-27 20:22 | 27.83798 | -16.43173 | 10942 ft | 318 kts | 249° |
| 2026-04-27 20:22 | 27.82941 | -16.45461 | 10609 ft | 315 kts | 249° |
| 2026-04-27 20:23 | 27.82337 | -16.47772 | 10438 ft | 299 kts | 268° |
| 2026-04-27 20:23 | 27.82458 | -16.50053 | 10228 ft | 287 kts | 279° |
| 2026-04-27 20:23 | 27.82718 | -16.52286 | 9781 ft | 287 kts | 279° |
| 2026-04-27 20:23 | 27.82981 | -16.54521 | 9330 ft | 287 kts | 279° |
| 2026-04-27 20:24 | 27.83235 | -16.56758 | 8913 ft | 287 kts | 279° |
| 2026-04-27 20:24 | 27.83478 | -16.58986 | 8507 ft | 285 kts | 279° |
| 2026-04-27 20:24 | 27.83714 | -16.61213 | 8182 ft | 285 kts | 279° |
| 2026-04-27 20:24 | 27.83942 | -16.63416 | 7962 ft | 281 kts | 278° |
| 2026-04-27 20:25 | 27.84166 | -16.65610 | 7631 ft | 280 kts | 278° |
| 2026-04-27 20:25 | 27.84388 | -16.67796 | 7282 ft | 280 kts | 278° |
| 2026-04-27 20:25 | 27.84610 | -16.69988 | 6942 ft | 281 kts | 278° |
| 2026-04-27 20:25 | 27.84831 | -16.72171 | 6582 ft | 278 kts | 278° |
| 2026-04-27 20:26 | 27.85048 | -16.74325 | 6210 ft | 274 kts | 278° |
| 2026-04-27 20:26 | 27.85263 | -16.76449 | 5829 ft | 271 kts | 278° |
| 2026-04-27 20:26 | 27.85470 | -16.78521 | 5461 ft | 268 kts | 278° |
| 2026-04-27 20:26 | 27.85686 | -16.80621 | 5161 ft | 263 kts | 282° |
| 2026-04-27 20:27 | 27.86359 | -16.82452 | 4904 ft | 255 kts | 311° |
| 2026-04-27 20:27 | 27.87676 | -16.83728 | 4713 ft | 247 kts | 332° |
| 2026-04-27 20:27 | 27.89217 | -16.84496 | 4620 ft | 239 kts | 338° |
| 2026-04-27 20:27 | 27.90713 | -16.85190 | 4552 ft | 225 kts | 338° |
| 2026-04-27 20:28 | 27.92182 | -16.85548 | 4421 ft | 211 kts | 5° |
| 2026-04-27 20:28 | 27.93525 | -16.85040 | 4259 ft | 202 kts | 29° |
| 2026-04-27 20:28 | 27.94556 | -16.84014 | 4045 ft | 196 kts | 49° |
| 2026-04-27 20:28 | 27.95012 | -16.83114 | 3960 ft | 195 kts | 62° |
| 2026-04-27 20:29 | 27.95774 | -16.81284 | 3818 ft | 191 kts | 58° |
| 2026-04-27 20:29 | 27.96437 | -16.79993 | 3723 ft | 191 kts | 57° |
| 2026-04-27 20:29 | 27.96957 | -16.78596 | 3510 ft | 191 kts | 65° |
| 2026-04-27 20:29 | 27.97461 | -16.77257 | 3310 ft | 181 kts | 61° |
| 2026-04-27 20:30 | 27.97958 | -16.75984 | 3118 ft | 173 kts | 63° |
| 2026-04-27 20:30 | 27.98389 | -16.74746 | 2936 ft | 166 kts | 64° |
| 2026-04-27 20:30 | 27.98810 | -16.73529 | 2785 ft | 168 kts | 64° |
| 2026-04-27 20:30 | 27.99239 | -16.72289 | 2702 ft | 173 kts | 64° |
| 2026-04-27 20:31 | 27.99686 | -16.70998 | 2475 ft | 177 kts | 65° |
| 2026-04-27 20:31 | 28.00131 | -16.69710 | 2236 ft | 173 kts | 66° |
| 2026-04-27 20:31 | 28.00555 | -16.68485 | 2045 ft | 164 kts | 67° |
| 2026-04-27 20:31 | 28.00968 | -16.67292 | 1807 ft | 161 kts | 69° |
| 2026-04-27 20:32 | 28.01372 | -16.66128 | 1590 ft | 157 kts | 69° |
| 2026-04-27 20:32 | 28.01766 | -16.64990 | 1399 ft | 153 kts | 69° |
| 2026-04-27 20:32 | 28.02147 | -16.63891 | 1171 ft | 149 kts | 70° |
| 2026-04-27 20:32 | 28.02520 | -16.62812 | 986 ft | 146 kts | 70° |
| 2026-04-27 20:33 | 28.02892 | -16.61747 | 785 ft | 147 kts | 70° |
| 2026-04-27 20:33 | 28.03267 | -16.60662 | 599 ft | 148 kts | 70° |
| 2026-04-27 20:33 | 28.03641 | -16.59581 | 393 ft | 147 kts | 70° |
| 2026-04-27 20:33 | 28.04010 | -16.58505 | 213 ft | 145 kts | 69° |
| 2026-04-27 20:34 | 28.04352 | -16.57525 | 194 ft | 118 kts | 69° |
| 2026-04-27 20:34 | 28.04583 | -16.56972 | 199 ft | 50 kts | 49° |
| 2026-04-27 20:34 | 28.04722 | -16.56803 | 215 ft | 15 kts | 27° |
| 2026-04-27 20:34 | 28.04741 | -16.56800 | 222 ft | 0 kts | 354° |
| 2026-04-27 20:35 | 28.04742 | -16.56800 | 217 ft | 0 kts | 354° |
| 2026-04-27 20:35 | 28.04772 | -16.56820 | 220 ft | 10 kts | 304° |
| 2026-04-27 20:35 | 28.04762 | -16.56899 | 220 ft | 10 kts | 248° |
| 2026-04-27 20:35 | 28.04737 | -16.56973 | 221 ft | 10 kts | 248° |
| 2026-04-27 20:36 | 28.04711 | -16.57046 | 221 ft | 10 kts | 248° |
| 2026-04-27 20:36 | 28.04682 | -16.57123 | 222 ft | 11 kts | 239° |
| 2026-04-27 20:36 | 28.04645 | -16.57210 | 222 ft | 13 kts | 248° |
| 2026-04-27 20:36 | 28.04612 | -16.57303 | 222 ft | 13 kts | 248° |
| 2026-04-27 20:37 | 28.04580 | -16.57393 | 222 ft | 12 kts | 249° |
| 2026-04-27 20:37 | 28.04607 | -16.57460 | 222 ft | 11 kts | 337° |
| 2026-04-27 20:37 | 28.04668 | -16.57495 | 223 ft | 9 kts | 309° |
| 2026-04-27 20:37 | 28.04695 | -16.57554 | 224 ft | 9 kts | 332° |
| 2026-04-27 20:38 | 28.04736 | -16.57573 | 225 ft | 1 kts | 338° |
| 2026-04-27 20:38 | 28.04738 | -16.57574 | 226 ft | 0 kts | 338° |